createdAt,value
2017-09-13T00:02:21.465Z,3.12
2017-09-13T00:04:49.778Z,4.62
2017-09-13T00:07:17.448Z,2.47
2017-09-13T00:09:45.314Z,4.25
2017-09-13T00:12:12.902Z,5.35
2017-09-13T00:14:40.485Z,2.75
2017-09-13T00:17:08.793Z,4.10
2017-09-13T00:19:36.699Z,5.90
2017-09-13T00:22:04.242Z,7.68
2017-09-13T00:24:31.794Z,4.18
2017-09-13T00:26:59.474Z,3.40
2017-09-13T00:29:27.027Z,4.60
2017-09-13T00:31:54.883Z,4.57
2017-09-13T00:34:22.423Z,4.78
2017-09-13T00:36:49.961Z,6.10
2017-09-13T00:39:18.569Z,7.05
2017-09-13T00:41:46.490Z,5.82
2017-09-13T00:44:14.035Z,8.80
2017-09-13T00:46:41.579Z,6.22
2017-09-13T00:49:09.567Z,6.82
2017-09-13T00:51:37.102Z,5.78
2017-09-13T00:54:04.646Z,4.30
2017-09-13T00:56:32.558Z,5.35
2017-09-13T00:59:00.104Z,6.72
2017-09-13T01:01:27.694Z,4.95
2017-09-13T01:03:55.233Z,6.82
2017-09-13T01:06:22.814Z,4.60
2017-09-13T01:08:50.358Z,4.35
2017-09-13T01:11:18.206Z,3.50
2017-09-13T01:13:45.747Z,5.70
2017-09-13T01:16:13.402Z,4.07
2017-09-13T01:18:40.947Z,5.20
2017-09-13T01:21:09.294Z,3.60
2017-09-13T01:23:36.890Z,6.45
2017-09-13T01:26:05.237Z,4.53
2017-09-13T01:28:32.826Z,4.80
2017-09-13T01:31:01.674Z,3.78
2017-09-13T01:33:29.270Z,4.12
2017-09-13T01:35:57.614Z,4.90
2017-09-13T01:38:25.198Z,5.40
2017-09-13T01:40:52.790Z,7.28
2017-09-13T01:43:20.453Z,6.03
2017-09-13T01:45:48.082Z,4.12
2017-09-13T01:48:15.630Z,6.47
2017-09-13T01:50:43.360Z,4.40
2017-09-13T01:53:10.897Z,8.82
2017-09-13T01:55:42.100Z,4.87
2017-09-13T01:58:09.647Z,6.47
2017-09-13T02:00:37.222Z,5.22
2017-09-13T02:03:04.761Z,4.15
2017-09-13T02:05:32.477Z,8.30
2017-09-13T02:08:00.801Z,3.78
2017-09-13T02:10:28.559Z,7.65
2017-09-13T02:12:56.121Z,5.57
2017-09-13T02:15:24.917Z,5.43
2017-09-13T02:17:52.464Z,5.53
2017-09-13T02:20:20.056Z,8.48
2017-09-13T02:22:47.603Z,5.32
2017-09-13T02:25:15.385Z,5.07
2017-09-13T02:27:42.976Z,5.20
2017-09-13T02:30:11.331Z,6.12
2017-09-13T02:32:43.117Z,5.00
2017-09-13T02:35:11.342Z,7.15
2017-09-13T02:37:38.895Z,10.98
2017-09-13T02:40:06.445Z,3.90
2017-09-13T02:42:34.183Z,5.70
2017-09-13T02:45:01.772Z,5.40
2017-09-13T02:47:29.318Z,5.43
2017-09-13T02:49:56.902Z,4.87
2017-09-13T02:52:24.443Z,5.32
2017-09-13T02:54:52.174Z,4.70
2017-09-13T02:57:20.479Z,7.93
2017-09-13T02:59:48.031Z,8.55
2017-09-13T03:02:15.771Z,4.85
2017-09-13T03:04:44.081Z,7.45
2017-09-13T03:07:11.666Z,5.22
2017-09-13T03:09:39.216Z,6.85
2017-09-13T03:12:07.047Z,5.72
2017-09-13T03:14:34.602Z,4.07
2017-09-13T03:17:02.146Z,6.65
2017-09-13T03:19:30.557Z,6.65
2017-09-13T03:22:01.842Z,4.10
2017-09-13T03:24:29.386Z,4.90
2017-09-13T03:26:56.931Z,9.38
2017-09-13T03:29:24.532Z,5.20
2017-09-13T03:31:52.114Z,4.47
2017-09-13T03:34:26.290Z,4.40
2017-09-13T03:36:53.830Z,7.25
2017-09-13T03:39:21.378Z,8.05
2017-09-13T03:41:49.382Z,7.70
2017-09-13T03:44:16.970Z,7.85
2017-09-13T03:46:44.514Z,8.75
2017-09-13T03:49:15.750Z,7.22
2017-09-13T03:51:43.306Z,5.20
2017-09-13T03:54:10.895Z,4.68
2017-09-13T03:56:38.447Z,7.12
2017-09-13T03:59:07.630Z,4.95
2017-09-13T04:01:35.170Z,3.65
2017-09-13T04:04:03.486Z,4.30
2017-09-13T04:06:31.083Z,6.35
2017-09-13T04:08:58.665Z,5.28
2017-09-13T04:11:26.205Z,4.25
2017-09-13T04:13:55.144Z,4.10
2017-09-13T04:16:22.698Z,4.07
2017-09-13T04:18:50.286Z,4.03
2017-09-13T04:21:17.822Z,4.35
2017-09-13T04:23:45.405Z,2.90
2017-09-13T04:26:13.350Z,4.28
2017-09-13T04:28:40.902Z,3.47
2017-09-13T04:31:08.464Z,5.05
2017-09-13T04:33:36.304Z,3.75
2017-09-13T04:36:04.093Z,2.78
2017-09-13T04:38:31.625Z,3.85
2017-09-13T04:40:59.522Z,7.35
2017-09-13T04:43:27.082Z,5.85
2017-09-13T04:45:54.618Z,3.72
2017-09-13T04:48:22.934Z,1.75
2017-09-13T04:50:50.481Z,2.65
2017-09-13T04:53:18.038Z,1.83
2017-09-13T04:55:45.618Z,6.10
2017-09-13T04:58:13.202Z,2.33
2017-09-13T05:00:41.515Z,3.30
2017-09-13T05:03:09.114Z,2.70
2017-09-13T05:05:36.654Z,2.22
2017-09-13T05:08:04.351Z,3.05
2017-09-13T05:10:31.898Z,1.73
2017-09-13T05:13:00.157Z,1.20
2017-09-13T05:15:27.706Z,2.35
2017-09-13T05:17:55.256Z,1.00
2017-09-13T05:20:22.898Z,1.23
2017-09-13T05:22:50.446Z,1.70
2017-09-13T05:25:18.846Z,1.62
2017-09-13T05:27:46.782Z,2.25
2017-09-13T05:30:14.317Z,1.40
2017-09-13T05:32:41.918Z,1.20
2017-09-13T05:35:10.626Z,1.83
2017-09-13T05:37:38.174Z,5.82
2017-09-13T05:40:05.733Z,2.05
2017-09-13T05:42:33.308Z,1.37
2017-09-13T05:45:00.851Z,2.90
2017-09-13T05:47:29.259Z,1.87
2017-09-13T05:49:56.788Z,3.62
2017-09-13T05:52:25.133Z,0.65
2017-09-13T05:54:52.669Z,1.37
2017-09-13T05:57:20.238Z,1.60
2017-09-13T05:59:47.813Z,0.90
2017-09-13T06:02:15.345Z,1.15
2017-09-13T06:04:42.971Z,0.80
2017-09-13T06:07:10.513Z,1.58
2017-09-13T06:09:38.889Z,1.65
2017-09-13T06:12:07.510Z,1.35
2017-09-13T06:14:35.065Z,1.30
2017-09-13T06:17:02.648Z,0.60
2017-09-13T06:19:30.190Z,1.20
2017-09-13T06:21:57.977Z,1.35
2017-09-13T06:24:25.516Z,0.50
2017-09-13T06:26:53.106Z,1.12
2017-09-13T06:29:20.667Z,0.60
2017-09-13T06:31:48.629Z,0.60
2017-09-13T06:34:16.161Z,1.27
2017-09-13T06:36:43.753Z,1.15
2017-09-13T06:39:11.291Z,1.58
2017-09-13T06:41:39.177Z,1.83
2017-09-13T06:44:06.724Z,32.78
2017-09-13T06:46:34.405Z,3.20
2017-09-13T06:49:01.954Z,6.40
2017-09-13T06:51:29.534Z,2.12
2017-09-13T06:53:57.122Z,0.62
2017-09-13T06:56:25.489Z,0.70
2017-09-13T06:58:53.026Z,0.60
2017-09-13T07:01:20.568Z,0.85
2017-09-13T07:03:48.471Z,0.60
2017-09-13T07:06:16.011Z,0.80
2017-09-13T07:08:43.911Z,0.90
2017-09-13T07:11:12.217Z,0.68
2017-09-13T07:13:39.763Z,1.35
2017-09-13T07:16:07.354Z,0.90
2017-09-13T07:18:34.890Z,0.98
2017-09-13T07:21:03.282Z,0.73
2017-09-13T07:23:30.922Z,1.37
2017-09-13T07:25:59.275Z,0.90
2017-09-13T07:28:26.862Z,0.93
2017-09-13T07:30:55.295Z,1.33
2017-09-13T07:33:22.875Z,1.75
2017-09-13T07:35:50.422Z,1.85
2017-09-13T07:38:18.161Z,5.40
2017-09-13T07:40:45.701Z,5.00
2017-09-13T07:43:13.279Z,4.50
2017-09-13T07:45:41.585Z,5.05
2017-09-13T07:48:09.157Z,5.70
2017-09-13T07:50:36.713Z,5.15
2017-09-13T07:53:04.293Z,6.03
2017-09-13T07:55:32.602Z,4.85
2017-09-13T07:58:00.266Z,5.15
2017-09-13T08:00:27.885Z,4.53
2017-09-13T08:02:55.422Z,9.10
2017-09-13T08:05:23.044Z,6.70
2017-09-13T08:07:50.582Z,7.18
2017-09-13T08:10:24.445Z,6.78
2017-09-13T08:12:51.982Z,6.22
2017-09-13T08:15:19.529Z,6.82
2017-09-13T08:17:47.175Z,5.95
2017-09-13T08:20:15.474Z,5.60
2017-09-13T08:22:45.525Z,9.10
2017-09-13T08:25:13.076Z,8.98
2017-09-13T08:27:40.724Z,7.47
2017-09-13T08:30:08.268Z,7.78
2017-09-13T08:32:36.489Z,6.65
2017-09-13T08:35:04.249Z,8.00
2017-09-13T08:37:31.793Z,7.70
2017-09-13T08:39:59.454Z,9.25
2017-09-13T08:42:27.014Z,10.07
2017-09-13T08:44:54.590Z,6.82
2017-09-13T08:47:22.165Z,7.03
2017-09-13T08:49:50.229Z,7.15
2017-09-13T08:52:17.771Z,8.90
2017-09-13T08:54:45.308Z,7.35
2017-09-13T08:57:14.093Z,7.53
2017-09-13T08:59:41.638Z,5.43
2017-09-13T09:02:09.981Z,7.53
2017-09-13T09:04:37.512Z,5.28
2017-09-13T09:07:05.275Z,6.32
2017-09-13T09:09:32.818Z,6.60
2017-09-13T09:12:00.824Z,3.72
2017-09-13T09:14:28.368Z,6.57
2017-09-13T09:16:55.919Z,6.30
2017-09-13T09:19:24.873Z,6.15
2017-09-13T09:21:53.217Z,7.85
2017-09-13T09:24:20.752Z,3.00
2017-09-13T09:26:48.383Z,2.87
2017-09-13T09:29:16.799Z,5.22
2017-09-13T09:31:48.370Z,6.40
2017-09-13T09:34:15.908Z,4.18
2017-09-13T09:36:43.900Z,6.43
2017-09-13T09:39:11.441Z,8.07
2017-09-13T09:41:39.736Z,6.05
2017-09-13T09:44:07.482Z,9.40
2017-09-13T09:46:35.060Z,6.35
2017-09-13T09:49:02.602Z,5.62
2017-09-13T09:51:31.242Z,4.55
2017-09-13T09:53:59.542Z,3.28
2017-09-13T09:56:27.072Z,4.00
2017-09-13T09:58:54.676Z,2.97
2017-09-13T10:01:22.233Z,3.75
2017-09-13T10:03:49.769Z,4.07
2017-09-13T10:06:18.258Z,8.77
2017-09-13T10:08:46.124Z,4.07
2017-09-13T10:11:13.671Z,3.00
2017-09-13T10:13:41.982Z,4.45
2017-09-13T10:16:09.554Z,4.80
2017-09-13T10:18:37.177Z,3.00
2017-09-13T10:21:05.492Z,2.10
2017-09-13T10:23:33.039Z,4.47
2017-09-13T10:26:01.225Z,2.15
2017-09-13T10:28:28.767Z,5.65
2017-09-13T10:30:56.309Z,3.53
2017-09-13T10:33:26.595Z,6.25
2017-09-13T10:35:54.176Z,3.12
2017-09-13T10:38:22.495Z,5.47
2017-09-13T10:40:50.069Z,4.20
2017-09-13T10:43:17.613Z,2.87
2017-09-13T10:45:46.120Z,3.03
2017-09-13T10:48:13.658Z,2.30
2017-09-13T10:50:41.237Z,2.92
2017-09-13T10:53:08.773Z,3.12
2017-09-13T10:55:36.359Z,2.55
2017-09-13T10:58:03.910Z,4.43
2017-09-13T11:00:31.556Z,1.77
2017-09-13T11:02:59.520Z,1.02
2017-09-13T11:05:27.064Z,3.33
2017-09-13T11:07:55.372Z,3.37
2017-09-13T11:10:22.953Z,5.87
2017-09-13T11:12:50.552Z,11.25
2017-09-13T11:15:18.876Z,3.83
2017-09-13T11:17:46.604Z,7.87
2017-09-13T11:20:14.917Z,4.35
2017-09-13T11:22:42.501Z,3.10
2017-09-13T11:25:10.042Z,4.43
2017-09-13T11:27:37.626Z,2.92
2017-09-13T11:30:05.185Z,5.15
2017-09-13T11:32:34.782Z,3.00
2017-09-13T11:35:02.325Z,3.72
2017-09-13T11:37:29.868Z,6.00
2017-09-13T11:39:57.462Z,4.20
2017-09-13T11:42:25.062Z,12.57
2017-09-13T11:44:53.376Z,8.15
2017-09-13T11:47:22.400Z,10.27
2017-09-13T11:49:49.952Z,8.02
2017-09-13T11:52:17.494Z,8.13
2017-09-13T11:54:45.143Z,6.15
2017-09-13T11:57:12.694Z,9.27
2017-09-13T11:59:40.392Z,13.47
2017-09-13T12:02:07.934Z,8.85
2017-09-13T12:04:35.481Z,12.70
2017-09-13T12:07:03.076Z,8.95
2017-09-13T12:09:30.642Z,12.23
2017-09-13T12:11:58.505Z,6.90
2017-09-13T12:14:26.093Z,13.45
2017-09-13T12:16:53.649Z,8.10
2017-09-13T12:19:21.254Z,7.00
2017-09-13T12:21:48.847Z,5.93
2017-09-13T12:24:17.302Z,11.85
2017-09-13T12:26:45.206Z,10.05
2017-09-13T12:29:12.750Z,8.57
2017-09-13T12:31:40.330Z,9.63
2017-09-13T12:34:10.130Z,9.48
2017-09-13T12:36:37.678Z,9.98
2017-09-13T12:39:05.677Z,10.82
2017-09-13T12:41:33.252Z,12.15
2017-09-13T12:44:01.594Z,14.07
2017-09-13T12:46:33.589Z,6.03
2017-09-13T12:49:01.369Z,5.60
2017-09-13T12:51:28.973Z,8.70
2017-09-13T12:53:56.870Z,13.60
2017-09-13T12:56:24.426Z,13.15
2017-09-13T12:58:51.977Z,10.35
2017-09-13T13:01:19.564Z,23.10
2017-09-13T13:03:47.225Z,11.30
2017-09-13T13:06:14.778Z,12.88
2017-09-13T13:08:42.733Z,9.07
2017-09-13T13:11:10.278Z,6.78
2017-09-13T13:13:37.824Z,3.67
2017-09-13T13:16:05.831Z,8.82
2017-09-13T13:18:33.384Z,8.73
2017-09-13T13:21:00.933Z,10.20
2017-09-13T13:23:28.909Z,5.35
2017-09-13T13:25:56.494Z,2.33
2017-09-13T13:28:24.037Z,4.12
2017-09-13T13:30:51.617Z,5.90
2017-09-13T13:33:19.167Z,5.43
2017-09-13T13:35:52.302Z,3.85
2017-09-13T13:38:19.865Z,5.70
2017-09-13T13:40:48.085Z,3.30
2017-09-13T13:43:15.633Z,3.65
2017-09-13T13:45:43.502Z,4.37
2017-09-13T13:48:11.049Z,4.37
2017-09-13T13:50:38.598Z,3.28
2017-09-13T13:53:06.898Z,4.82
2017-09-13T13:55:34.443Z,3.10
2017-09-13T13:58:01.981Z,2.67
2017-09-13T14:00:29.697Z,3.65
2017-09-13T14:02:57.298Z,3.58
2017-09-13T14:05:24.878Z,5.05
2017-09-13T14:07:52.457Z,2.85
2017-09-13T14:10:20.539Z,2.10
2017-09-13T14:12:48.568Z,6.40
2017-09-13T14:15:16.118Z,7.70
2017-09-13T14:17:44.533Z,5.50
2017-09-13T14:20:12.078Z,9.88
2017-09-13T14:22:39.960Z,10.07
2017-09-13T14:25:07.569Z,7.90
2017-09-13T14:27:35.153Z,7.97
2017-09-13T14:30:03.467Z,9.40
2017-09-13T14:32:31.128Z,8.25
2017-09-13T14:34:58.813Z,6.93
2017-09-13T14:37:27.202Z,4.72
2017-09-13T14:39:54.809Z,6.07
2017-09-13T14:42:22.833Z,3.10
2017-09-13T14:44:50.371Z,9.85
2017-09-13T14:47:17.909Z,6.50
2017-09-13T14:49:45.501Z,3.65
2017-09-13T14:52:13.157Z,3.87
2017-09-13T14:54:40.718Z,6.15
2017-09-13T14:57:08.379Z,4.30
2017-09-13T14:59:35.989Z,3.60
2017-09-13T15:02:03.577Z,3.22
2017-09-13T15:04:31.157Z,3.97
2017-09-13T15:06:58.730Z,2.75
2017-09-13T15:09:26.585Z,2.15
2017-09-13T15:11:54.131Z,2.97
2017-09-13T15:14:23.649Z,2.00
2017-09-13T15:16:51.185Z,2.22
2017-09-13T15:19:18.873Z,4.93
2017-09-13T15:21:46.468Z,1.73
2017-09-13T15:24:14.901Z,2.97
2017-09-13T15:26:42.612Z,2.90
2017-09-13T15:29:10.944Z,3.17
2017-09-13T15:31:39.039Z,2.53
2017-09-13T15:34:09.868Z,2.85
2017-09-13T15:36:37.413Z,4.62
2017-09-13T15:39:04.993Z,3.60
2017-09-13T15:41:32.530Z,2.10
2017-09-13T15:44:00.205Z,2.55
2017-09-13T15:46:27.957Z,2.12
2017-09-13T15:48:56.802Z,2.67
2017-09-13T15:51:25.109Z,3.22
2017-09-13T15:53:52.650Z,3.47
2017-09-13T15:56:21.268Z,5.87
2017-09-13T15:58:48.878Z,1.95
2017-09-13T16:01:16.421Z,3.42
2017-09-13T16:03:44.461Z,5.93
2017-09-13T16:06:12.000Z,3.60
2017-09-13T16:08:39.548Z,5.10
2017-09-13T16:11:07.170Z,3.25
2017-09-13T16:13:34.706Z,2.40
2017-09-13T16:16:03.055Z,2.92
2017-09-13T16:18:30.634Z,3.15
2017-09-13T16:20:58.384Z,2.67
2017-09-13T16:23:25.930Z,4.90
2017-09-13T16:25:54.386Z,2.65
2017-09-13T16:28:21.934Z,4.00
2017-09-13T16:30:49.466Z,4.22
2017-09-13T16:33:17.167Z,5.35
2017-09-13T16:35:44.716Z,5.53
2017-09-13T16:38:12.682Z,8.63
2017-09-13T16:40:40.234Z,5.70
2017-09-13T16:43:07.778Z,10.13
2017-09-13T16:45:35.377Z,10.75
2017-09-13T16:48:02.961Z,8.32
2017-09-13T16:50:31.280Z,8.35
2017-09-13T16:52:59.478Z,10.05
2017-09-13T16:55:27.054Z,9.73
2017-09-13T16:57:54.644Z,6.25
2017-09-13T17:00:22.238Z,7.05
2017-09-13T17:02:50.551Z,8.35
2017-09-13T17:05:18.095Z,11.23
2017-09-13T17:07:47.187Z,9.50
2017-09-13T17:10:14.733Z,9.15
2017-09-13T17:12:42.302Z,10.57
2017-09-13T17:15:12.386Z,10.40
2017-09-13T17:17:39.974Z,8.25
2017-09-13T17:20:07.513Z,13.60
2017-09-13T17:22:35.201Z,11.35
2017-09-13T17:25:02.749Z,11.15
2017-09-13T17:27:30.336Z,10.23
2017-09-13T17:29:57.890Z,11.43
2017-09-13T17:32:25.533Z,9.15
2017-09-13T17:34:53.078Z,8.65
2017-09-13T17:37:20.673Z,11.73
2017-09-13T17:39:48.941Z,14.60
2017-09-13T17:42:17.030Z,12.52
2017-09-13T17:44:44.568Z,12.43
2017-09-13T17:47:12.138Z,8.75
2017-09-13T17:49:40.013Z,11.00
2017-09-13T17:52:07.546Z,14.48
2017-09-13T17:54:35.097Z,12.07
2017-09-13T17:57:03.297Z,9.57
2017-09-13T17:59:30.886Z,14.02
2017-09-13T18:01:58.425Z,13.35
2017-09-13T18:04:26.482Z,15.68
2017-09-13T18:06:54.025Z,8.98
2017-09-13T18:09:21.574Z,13.80
2017-09-13T18:11:54.013Z,13.02
2017-09-13T18:14:22.298Z,11.05
2017-09-13T18:16:50.643Z,12.00
2017-09-13T18:19:18.436Z,14.38
2017-09-13T18:21:45.977Z,16.23
2017-09-13T18:24:15.985Z,10.88
2017-09-13T18:26:43.531Z,10.52
2017-09-13T18:29:11.413Z,11.63
2017-09-13T18:31:38.970Z,13.68
2017-09-13T18:34:06.517Z,13.70
2017-09-13T18:36:34.264Z,10.57
2017-09-13T18:39:05.546Z,14.55
2017-09-13T18:41:33.089Z,16.20
2017-09-13T18:44:00.639Z,12.95
2017-09-13T18:46:28.225Z,15.45
2017-09-13T18:48:55.961Z,13.20
2017-09-13T18:51:23.501Z,13.57
2017-09-13T18:53:51.066Z,15.73
2017-09-13T18:56:18.714Z,13.40
2017-09-13T18:58:47.138Z,16.35
2017-09-13T19:01:14.690Z,11.70
2017-09-13T19:03:43.006Z,16.67
2017-09-13T19:06:10.599Z,10.68
2017-09-13T19:08:38.154Z,15.15
2017-09-13T19:11:06.551Z,16.35
2017-09-13T19:13:34.098Z,16.60
2017-09-13T19:16:04.513Z,13.57
2017-09-13T19:18:32.833Z,14.13
2017-09-13T19:21:00.514Z,14.90
2017-09-13T19:23:32.219Z,13.13
2017-09-13T19:26:00.614Z,13.45
2017-09-13T19:28:28.202Z,14.48
2017-09-13T19:30:55.798Z,14.55
2017-09-13T19:33:25.954Z,14.00
2017-09-13T19:35:53.560Z,11.60
2017-09-13T19:38:21.197Z,11.75
2017-09-13T19:40:49.217Z,13.55
2017-09-13T19:43:17.602Z,12.90
2017-09-13T19:45:45.930Z,13.43
2017-09-13T19:48:13.529Z,14.52
2017-09-13T19:50:41.850Z,15.60
2017-09-13T19:53:09.435Z,10.90
2017-09-13T19:55:36.994Z,16.25
2017-09-13T19:58:05.173Z,21.37
2017-09-13T20:00:32.727Z,16.42
2017-09-13T20:03:00.278Z,15.82
2017-09-13T20:05:27.999Z,15.25
2017-09-13T20:07:56.346Z,17.20
2017-09-13T20:10:23.881Z,16.25
2017-09-13T20:12:51.457Z,13.05
2017-09-13T20:15:19.385Z,12.63
2017-09-13T20:17:46.969Z,15.63
2017-09-13T20:20:14.513Z,12.73
2017-09-13T20:22:42.162Z,12.23
2017-09-13T20:25:10.530Z,15.35
2017-09-13T20:27:38.837Z,15.13
2017-09-13T20:30:06.382Z,16.45
2017-09-13T20:32:33.970Z,11.90
2017-09-13T20:35:01.555Z,16.33
2017-09-13T20:37:29.204Z,11.07
2017-09-13T20:39:56.745Z,11.75
2017-09-13T20:42:24.317Z,14.90
2017-09-13T20:44:51.857Z,13.40
2017-09-13T20:47:19.441Z,15.68
2017-09-13T20:49:46.985Z,14.45
2017-09-13T20:52:14.566Z,12.80
2017-09-13T20:54:42.105Z,15.60
2017-09-13T20:57:10.106Z,12.85
2017-09-13T20:59:38.079Z,12.50
2017-09-13T21:02:05.758Z,17.52
2017-09-13T21:04:33.709Z,13.88
2017-09-13T21:07:01.446Z,15.63
2017-09-13T21:09:28.988Z,11.60
2017-09-13T21:11:56.993Z,14.95
2017-09-13T21:14:24.538Z,11.20
2017-09-13T21:16:52.269Z,13.50
2017-09-13T21:19:20.736Z,13.35
2017-09-13T21:21:49.050Z,14.75
2017-09-13T21:24:19.094Z,13.62
2017-09-13T21:26:47.071Z,12.35
2017-09-13T21:29:14.626Z,12.98
2017-09-13T21:31:42.185Z,11.73
2017-09-13T21:34:09.765Z,11.25
2017-09-13T21:36:37.305Z,14.05
2017-09-13T21:39:07.833Z,16.20
2017-09-13T21:41:35.368Z,11.68
2017-09-13T21:44:02.911Z,11.98
2017-09-13T21:46:30.561Z,12.82
2017-09-13T21:48:58.901Z,13.25
2017-09-13T21:51:26.437Z,12.00
2017-09-13T21:53:53.972Z,12.48
2017-09-13T21:56:21.678Z,15.80
2017-09-13T21:58:49.213Z,12.55
2017-09-13T22:01:16.910Z,10.32
2017-09-13T22:03:44.464Z,12.25
2017-09-13T22:06:12.012Z,13.95
2017-09-13T22:08:39.597Z,12.23
2017-09-13T22:11:08.640Z,10.20
2017-09-13T22:13:36.181Z,11.12
2017-09-13T22:16:04.548Z,11.55
2017-09-13T22:18:32.965Z,11.30
2017-09-13T22:21:00.507Z,8.48
2017-09-13T22:23:28.081Z,9.63
2017-09-13T22:25:55.612Z,7.28
2017-09-13T22:28:24.217Z,7.85
2017-09-13T22:30:51.757Z,7.90
2017-09-13T22:33:20.057Z,5.35
2017-09-13T22:35:47.893Z,5.15
2017-09-13T22:38:16.240Z,7.32
2017-09-13T22:40:43.813Z,8.30
2017-09-13T22:43:11.353Z,7.55
2017-09-13T22:45:38.929Z,6.32
2017-09-13T22:48:06.507Z,7.65
2017-09-13T22:50:34.354Z,7.00
2017-09-13T22:53:01.893Z,5.82
2017-09-13T22:55:29.447Z,8.07
2017-09-13T22:57:57.184Z,6.72
2017-09-13T23:00:24.767Z,6.15
2017-09-13T23:02:52.297Z,9.05
2017-09-13T23:05:24.313Z,15.70
2017-09-13T23:07:51.840Z,7.22
2017-09-13T23:10:19.415Z,5.85
2017-09-13T23:12:47.161Z,6.10
2017-09-13T23:15:15.061Z,6.32
2017-09-13T23:17:42.745Z,7.28
2017-09-13T23:20:10.284Z,7.87
2017-09-13T23:22:37.898Z,5.75
2017-09-13T23:25:06.241Z,5.60
2017-09-13T23:27:33.778Z,6.22
2017-09-13T23:30:01.411Z,6.80
2017-09-13T23:32:28.981Z,4.72
2017-09-13T23:34:56.516Z,6.97
2017-09-13T23:37:24.917Z,9.38
2017-09-13T23:39:52.449Z,5.22
2017-09-13T23:42:20.789Z,11.55
2017-09-13T23:44:48.322Z,6.68
2017-09-13T23:47:16.209Z,3.70
2017-09-13T23:49:43.741Z,3.50
2017-09-13T23:52:11.365Z,4.15
2017-09-13T23:54:38.902Z,9.38
2017-09-13T23:57:06.487Z,6.47
2017-09-13T23:59:34.797Z,7.32
